Time;durP1;ratioP1;P1;durP2;ratioP2;P2;SDS_P1;SDS_P2;PMS_P1;PMS_P2;Temp;Humidity;BMP_temperature;BMP_pressure;BME280_temperature;BME280_humidity;BME280_pressure;Samples;Min_cycle;Max_cycle;Signal;HPM_P1;HPM_P2
2021/08/07 00:02:23;;;;;;;9.45;7.28;;;14.50;97.80;;;;;;5042920;28;20040;-66
2021/08/07 00:04:49;;;;;;;9.77;7.22;;;14.50;97.70;;;;;;5041982;28;20029;-66
2021/08/07 00:07:14;;;;;;;9.90;7.15;;;14.40;97.70;;;;;;5042470;28;20029;-67
2021/08/07 00:09:40;;;;;;;13.40;7.15;;;14.40;97.80;;;;;;5040207;28;20037;-66
2021/08/07 00:12:06;;;;;;;11.65;7.20;;;14.50;97.90;;;;;;5027715;28;20070;-67
2021/08/07 00:14:32;;;;;;;10.93;7.50;;;14.40;97.80;;;;;;5040706;28;20032;-66
2021/08/07 00:16:58;;;;;;;10.65;7.45;;;14.40;97.90;;;;;;5040967;28;20626;-66
2021/08/07 00:19:23;;;;;;;11.38;8.70;;;14.30;97.80;;;;;;5045389;28;20029;-66
2021/08/07 00:21:49;;;;;;;10.65;8.20;;;14.40;97.90;;;;;;5045031;28;20071;-67
2021/08/07 00:24:15;;;;;;;13.43;8.30;;;14.40;98.00;;;;;;5043700;28;20064;-67
2021/08/07 00:26:41;;;;;;;10.52;8.63;;;14.40;98.00;;;;;;5031621;28;20033;-66
2021/08/07 00:29:07;;;;;;;12.18;9.05;;;14.40;98.00;;;;;;5046979;28;20033;-67
2021/08/07 00:31:32;;;;;;;14.25;9.30;;;14.30;98.00;;;;;;5039728;28;20041;-67
2021/08/07 00:33:58;;;;;;;15.52;9.45;;;14.30;98.00;;;;;;5033117;28;20513;-67
2021/08/07 00:36:24;;;;;;;12.65;9.10;;;14.30;98.00;;;;;;5037313;28;20068;-66
2021/08/07 00:38:49;;;;;;;12.43;9.38;;;14.20;98.10;;;;;;5035375;28;20048;-67
2021/08/07 00:41:15;;;;;;;15.70;9.25;;;14.20;98.30;;;;;;5042406;28;20135;-68
2021/08/07 00:43:40;;;;;;;16.35;10.48;;;14.20;98.30;;;;;;5047147;28;20041;-66
2021/08/07 00:46:06;;;;;;;15.25;10.55;;;14.20;98.40;;;;;;5044464;28;20377;-66
2021/08/07 00:48:32;;;;;;;15.20;10.65;;;14.20;98.30;;;;;;5050561;28;20044;-66
2021/08/07 00:50:58;;;;;;;16.25;11.68;;;14.20;98.40;;;;;;5044428;28;20206;-66
2021/08/07 00:53:24;;;;;;;14.52;11.13;;;14.10;98.40;;;;;;5046686;28;20440;-67
2021/08/07 00:55:49;;;;;;;22.58;12.23;;;14.20;98.60;;;;;;5043421;28;20133;-65
2021/08/07 00:58:15;;;;;;;20.13;12.60;;;14.30;98.60;;;;;;5038429;28;20032;-65
2021/08/07 01:00:40;;;;;;;17.85;12.07;;;14.30;98.60;;;;;;5039134;28;20175;-65
2021/08/07 01:03:13;;;;;;;20.27;12.10;;;14.30;98.50;;;;;;5048585;28;20073;-66
2021/08/07 01:06:02;;;;;;;16.88;12.40;;;14.30;98.50;;;;;;5046802;28;20053;-65
2021/08/07 01:08:36;;;;;;;17.52;12.55;;;14.30;98.50;;;;;;5023604;28;20024;-65
2021/08/07 01:11:19;;;;;;;19.52;12.30;;;14.30;98.50;;;;;;5043308;28;20144;-65
2021/08/07 01:13:51;;;;;;;16.70;11.75;;;14.30;98.50;;;;;;5049146;28;20442;-65
2021/08/07 01:16:25;;;;;;;14.50;11.07;;;14.30;98.40;;;;;;5039544;28;20102;-66
2021/08/07 01:18:52;;;;;;;16.67;11.43;;;14.30;98.40;;;;;;5041137;28;20143;-66
2021/08/07 01:21:23;;;;;;;18.48;12.20;;;14.40;98.40;;;;;;5045144;28;20476;-66
2021/08/07 01:24:13;;;;;;;17.27;11.38;;;14.40;98.30;;;;;;5045335;28;20150;-67
2021/08/07 01:26:54;;;;;;;16.80;11.83;;;14.30;98.20;;;;;;5044749;28;20134;-66
2021/08/07 01:29:21;;;;;;;13.88;10.80;;;14.20;98.20;;;;;;5028358;28;20021;-66
2021/08/07 01:31:47;;;;;;;16.98;12.50;;;14.10;98.20;;;;;;5039059;28;20113;-66
2021/08/07 01:34:14;;;;;;;17.83;12.95;;;14.20;98.30;;;;;;5044578;28;20032;-66
2021/08/07 01:36:40;;;;;;;17.80;12.30;;;14.20;98.40;;;;;;5040263;28;20070;-66
2021/08/07 01:39:08;;;;;;;22.38;12.65;;;14.10;98.30;;;;;;5040511;28;20551;-66
2021/08/07 01:41:33;;;;;;;18.70;11.30;;;14.10;98.40;;;;;;5045042;28;20637;-66
2021/08/07 01:43:59;;;;;;;21.05;13.70;;;14.10;98.40;;;;;;5044957;28;20048;-65
2021/08/07 01:46:30;;;;;;;22.55;13.63;;;14.10;98.50;;;;;;5039931;28;20040;-65
2021/08/07 01:49:05;;;;;;;23.65;14.88;;;14.00;98.50;;;;;;5046277;28;20487;-65
2021/08/07 01:51:41;;;;;;;20.92;14.27;;;14.00;98.60;;;;;;5042021;28;20513;-65
2021/08/07 01:54:08;;;;;;;21.77;14.98;;;14.00;98.70;;;;;;5044236;28;20024;-66
2021/08/07 01:56:37;;;;;;;24.67;15.57;;;14.00;98.70;;;;;;5039208;28;20033;-66
2021/08/07 01:59:14;;;;;;;22.15;14.80;;;14.00;98.70;;;;;;5032288;28;20029;-66
2021/08/07 02:01:40;;;;;;;23.27;15.07;;;14.00;98.80;;;;;;5044841;28;20131;-66
2021/08/07 02:04:06;;;;;;;25.48;15.88;;;14.00;98.90;;;;;;5046020;28;20142;-66
2021/08/07 02:06:34;;;;;;;21.50;14.98;;;14.00;98.90;;;;;;5039952;28;20524;-67
2021/08/07 02:09:01;;;;;;;29.42;16.48;;;14.00;98.90;;;;;;5043090;28;20025;-66
2021/08/07 02:11:27;;;;;;;24.52;15.75;;;14.00;98.90;;;;;;5042420;28;20033;-66
2021/08/07 02:13:55;;;;;;;21.83;14.68;;;14.00;98.90;;;;;;5044399;28;20152;-67
2021/08/07 02:16:21;;;;;;;24.70;15.30;;;14.00;98.90;;;;;;5022881;28;20036;-67
2021/08/07 02:18:48;;;;;;;26.38;15.75;;;14.00;99.00;;;;;;5038030;28;20040;-66
2021/08/07 02:21:15;;;;;;;21.35;15.30;;;14.00;99.00;;;;;;5046030;28;20108;-66
2021/08/07 02:23:41;;;;;;;26.95;15.55;;;14.00;99.00;;;;;;5044109;28;20392;-66
2021/08/07 02:26:09;;;;;;;23.13;15.52;;;13.90;99.00;;;;;;5041155;28;20044;-66
2021/08/07 02:28:36;;;;;;;23.50;15.52;;;13.90;99.10;;;;;;5043528;28;20029;-66
2021/08/07 02:31:03;;;;;;;26.30;16.60;;;14.00;99.10;;;;;;5043374;28;20037;-66
2021/08/07 02:33:30;;;;;;;22.15;15.25;;;13.90;99.10;;;;;;5043990;28;20036;-65
2021/08/07 02:35:58;;;;;;;26.48;17.60;;;13.80;99.00;;;;;;5044390;28;20125;-66
2021/08/07 02:38:26;;;;;;;26.60;16.58;;;13.90;99.20;;;;;;5024676;28;20460;-67
2021/08/07 02:40:55;;;;;;;30.98;17.48;;;13.90;99.20;;;;;;5044001;28;20047;-66
2021/08/07 02:43:21;;;;;;;28.88;17.05;;;13.80;99.10;;;;;;5041060;28;20033;-66
2021/08/07 02:45:47;;;;;;;29.40;18.63;;;13.90;99.20;;;;;;5044868;28;20043;-66
2021/08/07 02:48:13;;;;;;;30.25;19.02;;;13.80;99.20;;;;;;5043309;28;20457;-67
2021/08/07 02:50:42;;;;;;;33.63;20.38;;;13.80;99.20;;;;;;5040384;28;20073;-66
2021/08/07 02:53:11;;;;;;;35.05;19.90;;;13.90;99.30;;;;;;5030669;28;20029;-67
2021/08/07 02:55:38;;;;;;;33.47;19.85;;;13.90;99.30;;;;;;5034078;28;20378;-67
2021/08/07 02:58:04;;;;;;;38.85;19.98;;;13.90;99.30;;;;;;5047383;28;20521;-66
2021/08/07 03:00:33;;;;;;;34.40;20.15;;;13.90;99.30;;;;;;5038530;28;20109;-64
2021/08/07 03:02:58;;;;;;;35.83;20.25;;;13.90;99.30;;;;;;5049188;28;20092;-66
2021/08/07 03:05:24;;;;;;;32.80;19.42;;;13.90;99.30;;;;;;5046600;28;20507;-67
2021/08/07 03:07:49;;;;;;;31.08;19.30;;;13.90;99.30;;;;;;5045366;28;20060;-66
2021/08/07 03:10:15;;;;;;;28.63;18.75;;;13.90;99.30;;;;;;5044498;28;20040;-66
2021/08/07 03:12:43;;;;;;;35.40;19.23;;;13.90;99.30;;;;;;5033571;28;20919;-67
2021/08/07 03:15:10;;;;;;;30.83;18.48;;;13.80;99.30;;;;;;5052064;28;20041;-66
2021/08/07 03:17:37;;;;;;;31.77;18.35;;;13.80;99.30;;;;;;5052169;28;20029;-66
2021/08/07 03:20:03;;;;;;;31.23;19.63;;;13.80;99.30;;;;;;5043990;28;20132;-66
2021/08/07 03:22:29;;;;;;;35.88;20.33;;;13.90;99.40;;;;;;5040701;28;20035;-66
2021/08/07 03:24:55;;;;;;;33.78;19.30;;;13.90;99.40;;;;;;5054860;28;20134;-66
2021/08/07 03:27:21;;;;;;;36.47;19.80;;;13.90;99.40;;;;;;5040175;28;20052;-66
2021/08/07 03:29:47;;;;;;;38.40;21.08;;;14.00;99.40;;;;;;5021148;28;20466;-66
2021/08/07 03:32:13;;;;;;;37.03;21.00;;;14.00;99.50;;;;;;5028178;28;20234;-66
2021/08/07 03:34:38;;;;;;;33.40;19.67;;;14.00;99.40;;;;;;5043403;28;20036;-66
2021/08/07 03:37:04;;;;;;;33.40;19.52;;;14.00;99.40;;;;;;5044430;28;20032;-66
2021/08/07 03:39:29;;;;;;;33.03;19.83;;;13.90;99.30;;;;;;5043280;28;20487;-67
2021/08/07 03:41:55;;;;;;;33.38;18.92;;;13.90;99.40;;;;;;5046146;28;20111;-66
2021/08/07 03:44:21;;;;;;;33.65;19.23;;;13.90;99.30;;;;;;5040542;28;20025;-66
2021/08/07 03:46:47;;;;;;;28.67;18.05;;;13.90;99.40;;;;;;5041835;28;20615;-66
2021/08/07 03:49:12;;;;;;;31.35;18.80;;;13.90;99.30;;;;;;5035278;28;20048;-66
2021/08/07 03:51:38;;;;;;;32.88;18.83;;;13.90;99.30;;;;;;5036358;28;20051;-66
2021/08/07 03:54:03;;;;;;;33.42;19.42;;;13.90;99.30;;;;;;5046624;28;20033;-66
2021/08/07 03:56:29;;;;;;;33.65;20.25;;;14.00;99.40;;;;;;5047783;28;20051;-67
2021/08/07 03:58:55;;;;;;;29.73;19.00;;;14.00;99.40;;;;;;5043493;28;20538;-66
2021/08/07 04:01:20;;;;;;;32.22;19.30;;;14.00;99.30;;;;;;5045079;28;20024;-66
2021/08/07 04:03:46;;;;;;;30.45;18.35;;;13.90;99.30;;;;;;5044754;28;20039;-66
2021/08/07 04:06:11;;;;;;;36.58;18.77;;;14.00;99.30;;;;;;5043118;28;20036;-67
2021/08/07 04:08:37;;;;;;;33.88;17.73;;;14.00;99.30;;;;;;5037575;28;20037;-66
2021/08/07 04:11:02;;;;;;;29.38;17.67;;;14.00;99.30;;;;;;5038373;28;20044;-66
2021/08/07 04:13:28;;;;;;;29.25;17.55;;;14.00;99.30;;;;;;5046653;28;20100;-66
2021/08/07 04:15:54;;;;;;;30.42;17.58;;;14.10;99.20;;;;;;5053674;28;20033;-66
2021/08/07 04:18:19;;;;;;;28.65;17.85;;;14.10;99.20;;;;;;5045627;28;20029;-66
2021/08/07 04:20:45;;;;;;;27.80;17.27;;;14.10;99.10;;;;;;5044719;28;20460;-66
2021/08/07 04:23:11;;;;;;;29.95;18.27;;;14.10;99.10;;;;;;5052961;28;20085;-67
2021/08/07 04:25:36;;;;;;;28.77;17.90;;;14.10;99.10;;;;;;5043798;28;20044;-66
2021/08/07 04:28:02;;;;;;;27.83;17.95;;;14.10;99.00;;;;;;5035590;28;20525;-66
2021/08/07 04:30:28;;;;;;;30.15;17.40;;;14.10;99.00;;;;;;5041396;28;20048;-66
2021/08/07 04:32:54;;;;;;;29.15;17.23;;;14.10;99.00;;;;;;5046553;28;20025;-65
2021/08/07 04:35:20;;;;;;;24.27;15.75;;;14.10;98.90;;;;;;5048383;28;20412;-67
2021/08/07 04:37:51;;;;;;;23.02;16.33;;;14.20;99.00;;;;;;5047287;28;20036;-67
2021/08/07 04:40:18;;;;;;;24.83;16.08;;;14.20;98.90;;;;;;5044048;28;20042;-67
2021/08/07 04:42:45;;;;;;;27.27;15.77;;;14.20;98.90;;;;;;5047046;28;20069;-67
2021/08/07 04:45:11;;;;;;;22.83;15.23;;;14.20;98.80;;;;;;5051360;28;20338;-66
2021/08/07 04:47:36;;;;;;;22.08;15.20;;;14.30;98.90;;;;;;5043990;28;20028;-66
2021/08/07 04:50:02;;;;;;;22.23;14.57;;;14.30;98.80;;;;;;5043483;28;20481;-67
2021/08/07 04:52:28;;;;;;;21.85;14.40;;;14.30;98.80;;;;;;5042798;28;20085;-67
2021/08/07 04:54:53;;;;;;;23.50;14.57;;;14.30;98.80;;;;;;5046754;28;20028;-67
2021/08/07 04:57:19;;;;;;;21.85;14.40;;;14.30;98.70;;;;;;5045843;28;20052;-67
2021/08/07 04:59:45;;;;;;;20.05;14.57;;;14.30;98.80;;;;;;5042959;28;20065;-66
2021/08/07 05:02:10;;;;;;;20.95;13.98;;;14.40;98.70;;;;;;5041569;28;20054;-67
2021/08/07 05:04:36;;;;;;;22.42;14.38;;;14.40;98.70;;;;;;5042773;28;20029;-66
2021/08/07 05:07:01;;;;;;;19.90;12.95;;;14.40;98.70;;;;;;5045527;28;20058;-67
2021/08/07 05:09:27;;;;;;;20.15;13.15;;;14.40;98.70;;;;;;5046614;28;21516;-66
2021/08/07 05:11:52;;;;;;;19.88;12.50;;;14.40;98.60;;;;;;5042387;28;20401;-66
2021/08/07 05:14:18;;;;;;;20.02;13.25;;;14.50;98.60;;;;;;5042000;28;20130;-67
2021/08/07 05:16:44;;;;;;;18.85;12.52;;;14.50;98.60;;;;;;5046764;28;20039;-66
2021/08/07 05:19:09;;;;;;;18.92;12.30;;;14.60;98.60;;;;;;5051626;28;20130;-66
2021/08/07 05:21:35;;;;;;;17.67;10.77;;;14.60;98.50;;;;;;5042730;28;20465;-66
2021/08/07 05:24:00;;;;;;;16.00;11.07;;;14.60;98.40;;;;;;5050604;28;20507;-66
2021/08/07 05:26:26;;;;;;;16.27;10.90;;;14.70;98.40;;;;;;5037986;28;20021;-67
2021/08/07 05:28:52;;;;;;;13.55;9.82;;;14.70;98.30;;;;;;5050064;28;20103;-66
2021/08/07 05:31:17;;;;;;;12.52;9.35;;;14.80;98.10;;;;;;5022532;28;20033;-67
2021/08/07 05:33:43;;;;;;;18.05;10.48;;;14.80;98.00;;;;;;5046484;28;20128;-66
2021/08/07 05:36:08;;;;;;;12.88;9.38;;;14.80;98.00;;;;;;5045169;28;20132;-66
2021/08/07 05:38:34;;;;;;;13.40;8.93;;;14.80;98.00;;;;;;5047351;28;20036;-66
2021/08/07 05:41:00;;;;;;;14.98;8.80;;;14.90;98.00;;;;;;5049118;28;20017;-67
2021/08/07 05:43:25;;;;;;;14.18;9.57;;;15.00;97.90;;;;;;5052473;28;20021;-67
2021/08/07 05:45:51;;;;;;;13.77;7.95;;;15.00;97.70;;;;;;5037499;28;20039;-67
2021/08/07 05:48:18;;;;;;;10.63;7.97;;;15.20;97.50;;;;;;5052130;28;20021;-66
2021/08/07 05:50:44;;;;;;;9.13;6.97;;;15.30;97.20;;;;;;5043417;28;20086;-67
2021/08/07 05:53:10;;;;;;;11.40;6.78;;;15.40;97.10;;;;;;5042552;28;20033;-67
2021/08/07 05:55:35;;;;;;;11.48;7.43;;;15.50;96.80;;;;;;5045487;28;20072;-67
2021/08/07 05:58:03;;;;;;;10.77;6.15;;;15.50;96.50;;;;;;5052344;28;20108;-67
2021/08/07 06:00:29;;;;;;;11.40;6.32;;;15.60;96.30;;;;;;5026958;28;20063;-67
2021/08/07 06:02:55;;;;;;;13.30;6.88;;;15.60;96.00;;;;;;5050951;28;20075;-67
2021/08/07 06:05:20;;;;;;;8.10;5.85;;;15.80;96.00;;;;;;5046726;28;20105;-67
2021/08/07 06:07:50;;;;;;;8.25;5.90;;;15.80;95.80;;;;;;5049797;28;20036;-67
2021/08/07 06:10:15;;;;;;;8.88;5.63;;;15.90;95.90;;;;;;5056354;28;20029;-67
2021/08/07 06:12:41;;;;;;;11.85;5.60;;;15.90;95.60;;;;;;5043936;28;20099;-67
2021/08/07 06:15:07;;;;;;;9.07;5.78;;;16.00;95.70;;;;;;5042252;28;20060;-66
2021/08/07 06:17:32;;;;;;;9.73;5.95;;;16.00;95.60;;;;;;5047735;28;20032;-66
2021/08/07 06:19:58;;;;;;;7.60;5.10;;;16.10;95.40;;;;;;5042851;28;20685;-67
2021/08/07 06:22:24;;;;;;;8.80;5.32;;;16.20;95.20;;;;;;5042264;28;20090;-67
2021/08/07 06:24:49;;;;;;;9.18;5.10;;;16.40;95.20;;;;;;5040785;28;20044;-66
2021/08/07 06:27:15;;;;;;;6.30;4.70;;;16.50;95.10;;;;;;5048832;28;20047;-67
2021/08/07 06:29:40;;;;;;;6.93;4.53;;;16.50;94.40;;;;;;5045323;28;20396;-66
2021/08/07 06:32:06;;;;;;;7.97;4.22;;;16.50;94.00;;;;;;5037606;28;20093;-67
2021/08/07 06:34:32;;;;;;;8.80;4.18;;;16.40;94.20;;;;;;5032802;28;20030;-67
2021/08/07 06:36:57;;;;;;;8.82;4.53;;;16.50;94.40;;;;;;5043122;28;20426;-67
2021/08/07 06:39:23;;;;;;;6.03;4.10;;;16.40;94.10;;;;;;5040268;28;20053;-67
2021/08/07 06:41:48;;;;;;;6.60;3.92;;;16.50;94.60;;;;;;5034521;28;20762;-66
2021/08/07 06:44:14;;;;;;;6.38;4.20;;;16.40;93.70;;;;;;5045585;28;20021;-67
2021/08/07 06:46:40;;;;;;;7.75;4.25;;;16.40;94.30;;;;;;5035785;28;20430;-66
2021/08/07 06:49:05;;;;;;;7.20;4.22;;;16.40;94.60;;;;;;5041409;28;20025;-67
2021/08/07 06:51:31;;;;;;;8.20;4.18;;;16.40;94.40;;;;;;5044102;28;20442;-67
2021/08/07 06:53:56;;;;;;;6.47;3.85;;;16.50;94.70;;;;;;5047474;28;20079;-67
2021/08/07 06:56:22;;;;;;;6.97;3.97;;;16.50;94.60;;;;;;5038558;28;20068;-67
2021/08/07 06:58:47;;;;;;;7.45;4.35;;;16.50;94.20;;;;;;5042531;28;20094;-66
2021/08/07 07:01:13;;;;;;;7.35;4.53;;;16.50;93.80;;;;;;5039309;28;20033;-67
2021/08/07 07:03:39;;;;;;;8.27;4.20;;;16.70;94.10;;;;;;5035681;28;20047;-67
2021/08/07 07:06:05;;;;;;;7.03;4.20;;;17.00;93.80;;;;;;5043538;28;20033;-67
2021/08/07 07:08:30;;;;;;;6.72;4.35;;;17.00;93.00;;;;;;5045230;28;20103;-66
2021/08/07 07:10:56;;;;;;;7.03;3.88;;;17.00;93.00;;;;;;5039880;28;20497;-67
2021/08/07 07:13:22;;;;;;;6.85;4.28;;;16.90;92.60;;;;;;5041395;28;20482;-66
2021/08/07 07:15:47;;;;;;;7.18;4.15;;;17.00;92.50;;;;;;5054894;28;20453;-66
2021/08/07 07:18:13;;;;;;;6.70;4.32;;;17.00;92.60;;;;;;5045706;28;20037;-67
2021/08/07 07:20:38;;;;;;;7.55;3.78;;;17.10;92.60;;;;;;5052071;28;20044;-67
2021/08/07 07:23:04;;;;;;;7.32;3.78;;;17.30;92.40;;;;;;5047908;28;20512;-68
2021/08/07 07:25:30;;;;;;;6.82;3.60;;;17.30;92.00;;;;;;5050270;28;20025;-66
2021/08/07 07:27:55;;;;;;;5.47;3.47;;;17.50;91.80;;;;;;5045643;28;20432;-67
2021/08/07 07:30:21;;;;;;;5.93;3.40;;;17.80;91.00;;;;;;5043715;28;20360;-67
2021/08/07 07:32:46;;;;;;;6.28;3.38;;;18.00;89.30;;;;;;5046291;28;20051;-68
2021/08/07 07:35:12;;;;;;;7.30;2.58;;;18.10;89.50;;;;;;5050415;28;20088;-67
2021/08/07 07:37:38;;;;;;;6.63;2.90;;;18.20;88.30;;;;;;5050609;28;20047;-67
2021/08/07 07:40:06;;;;;;;6.50;2.83;;;18.30;89.00;;;;;;5038086;28;20032;-66
2021/08/07 07:42:32;;;;;;;9.70;2.75;;;18.50;88.50;;;;;;5056150;28;20477;-66
2021/08/07 07:44:57;;;;;;;5.60;3.45;;;18.60;87.20;;;;;;5039376;28;20115;-66
2021/08/07 07:47:23;;;;;;;5.00;2.72;;;19.00;88.90;;;;;;5041925;28;20124;-66
2021/08/07 07:49:49;;;;;;;4.38;2.40;;;19.40;86.10;;;;;;5039232;28;20030;-66
2021/08/07 07:52:14;;;;;;;8.23;2.75;;;19.10;85.80;;;;;;5034550;28;20452;-66
2021/08/07 07:54:40;;;;;;;3.50;2.30;;;19.40;85.80;;;;;;5042914;28;20025;-67
2021/08/07 07:57:06;;;;;;;4.40;2.30;;;19.50;84.00;;;;;;5039228;28;20029;-67
2021/08/07 07:59:31;;;;;;;6.15;2.28;;;19.90;86.10;;;;;;5051520;28;20027;-67
2021/08/07 08:02:02;;;;;;;5.47;2.03;;;19.70;82.60;;;;;;5046750;28;20052;-67
2021/08/07 08:04:31;;;;;;;7.50;2.40;;;19.50;82.10;;;;;;5047443;28;20542;-67
2021/08/07 08:06:58;;;;;;;5.35;1.98;;;19.70;84.30;;;;;;5046629;28;20082;-67
2021/08/07 08:09:24;;;;;;;5.13;1.92;;;19.90;82.50;;;;;;5047021;28;20036;-67
2021/08/07 08:11:50;;;;;;;4.75;1.98;;;20.00;81.70;;;;;;5047238;28;20051;-67
2021/08/07 08:14:16;;;;;;;7.18;2.13;;;20.20;82.70;;;;;;5047076;28;20074;-67
2021/08/07 08:16:43;;;;;;;5.32;2.00;;;20.10;81.00;;;;;;5044533;28;20037;-67
2021/08/07 08:19:11;;;;;;;5.10;2.20;;;20.20;80.00;;;;;;5046103;28;20040;-68
2021/08/07 08:21:36;;;;;;;3.97;2.10;;;20.10;79.80;;;;;;5046904;28;20469;-66
2021/08/07 08:24:02;;;;;;;6.13;2.00;;;20.10;81.60;;;;;;5046731;28;20037;-68
2021/08/07 08:26:28;;;;;;;5.75;1.83;;;20.40;80.90;;;;;;5047101;28;20472;-67
2021/08/07 08:28:53;;;;;;;3.80;1.90;;;20.60;81.10;;;;;;5048588;28;20465;-67
2021/08/07 08:31:19;;;;;;;7.97;2.00;;;20.80;79.20;;;;;;5047245;28;20072;-67
2021/08/07 08:33:45;;;;;;;3.53;1.88;;;20.50;77.70;;;;;;5045189;28;20045;-67
2021/08/07 08:36:11;;;;;;;5.57;2.35;;;20.20;78.70;;;;;;5042687;28;20025;-67
2021/08/07 08:38:37;;;;;;;4.32;1.83;;;20.10;79.90;;;;;;5046890;28;20485;-67
2021/08/07 08:41:02;;;;;;;3.35;1.77;;;19.90;80.40;;;;;;5051055;28;20060;-66
2021/08/07 08:43:28;;;;;;;6.15;2.33;;;19.80;80.20;;;;;;5050503;28;20094;-68
2021/08/07 08:45:55;;;;;;;5.28;1.88;;;19.70;81.50;;;;;;5048916;28;20068;-67
2021/08/07 08:48:21;;;;;;;4.90;1.77;;;19.70;80.70;;;;;;5042096;28;20650;-66
2021/08/07 08:50:49;;;;;;;4.65;2.17;;;19.50;80.30;;;;;;5041391;28;20445;-67
2021/08/07 08:53:15;;;;;;;3.90;1.95;;;19.60;81.60;;;;;;5042768;28;20470;-67
2021/08/07 08:55:40;;;;;;;6.15;2.75;;;19.40;81.70;;;;;;5041341;28;20091;-66
2021/08/07 08:58:06;;;;;;;5.80;3.00;;;19.40;82.90;;;;;;5042489;28;20105;-67
2021/08/07 09:00:32;;;;;;;6.97;3.15;;;19.40;81.20;;;;;;5036845;28;20108;-67
2021/08/07 09:02:58;;;;;;;5.93;3.63;;;19.40;82.20;;;;;;5043731;28;20086;-68
2021/08/07 09:05:24;;;;;;;6.15;3.80;;;19.70;81.90;;;;;;5041568;28;20432;-66
2021/08/07 09:07:50;;;;;;;6.50;4.00;;;20.10;77.80;;;;;;5043655;28;20115;-67
2021/08/07 09:10:19;;;;;;;5.60;3.80;;;20.30;79.60;;;;;;5041437;28;20092;-66
2021/08/07 09:12:47;;;;;;;7.85;3.35;;;20.50;79.30;;;;;;5031706;28;20032;-66
2021/08/07 09:15:32;;;;;;;5.03;3.67;;;20.50;78.10;;;;;;5038466;28;20021;-68
2021/08/07 09:18:09;;;;;;;7.40;3.72;;;20.50;78.00;;;;;;5034688;28;20131;-67
2021/08/07 09:20:35;;;;;;;9.73;3.33;;;20.50;78.50;;;;;;5042674;28;20366;-66
2021/08/07 09:23:00;;;;;;;5.25;2.80;;;20.80;78.90;;;;;;5041580;28;20035;-66
2021/08/07 09:25:37;;;;;;;4.22;2.25;;;20.90;74.70;;;;;;5043449;28;20569;-65
2021/08/07 09:28:03;;;;;;;3.90;2.00;;;20.90;74.70;;;;;;5039957;28;20523;-67
2021/08/07 09:30:32;;;;;;;5.15;2.45;;;20.80;73.90;;;;;;5038167;28;20300;-67
2021/08/07 09:33:10;;;;;;;5.13;2.13;;;21.00;75.80;;;;;;5033947;28;20025;-68
2021/08/07 09:35:44;;;;;;;4.78;2.00;;;21.60;75.40;;;;;;5035260;28;20037;-66
2021/08/07 09:38:23;;;;;;;3.92;1.95;;;21.70;71.90;;;;;;5035879;28;20029;-68
2021/08/07 09:41:02;;;;;;;4.82;2.17;;;22.20;71.60;;;;;;5018509;28;20056;-67
2021/08/07 09:43:35;;;;;;;2.38;1.50;;;22.50;68.30;;;;;;5037413;28;20723;-67
2021/08/07 09:46:08;;;;;;;3.42;1.70;;;22.80;67.70;;;;;;5038718;28;20021;-67
2021/08/07 09:48:40;;;;;;;5.38;1.60;;;23.00;70.70;;;;;;5042090;28;20566;-67
2021/08/07 09:51:27;;;;;;;3.28;1.75;;;22.80;68.70;;;;;;5036944;28;20106;-67
2021/08/07 09:54:03;;;;;;;5.75;1.52;;;22.60;71.80;;;;;;5037107;28;20207;-67
2021/08/07 09:56:53;;;;;;;5.97;1.65;;;22.80;69.10;;;;;;5038363;28;20102;-68
2021/08/07 09:59:21;;;;;;;3.72;2.03;;;22.50;69.20;;;;;;5038446;28;20018;-67
2021/08/07 10:01:48;;;;;;;4.57;1.90;;;22.00;69.90;;;;;;5036245;28;20099;-67
2021/08/07 10:04:15;;;;;;;2.70;1.90;;;22.00;72.20;;;;;;5038539;28;20037;-67
2021/08/07 10:06:43;;;;;;;4.25;1.95;;;22.10;69.70;;;;;;5038002;28;20177;-68
2021/08/07 10:09:09;;;;;;;4.18;2.00;;;22.60;71.00;;;;;;5032829;28;20175;-67
2021/08/07 10:11:35;;;;;;;3.10;1.75;;;22.30;68.10;;;;;;5042069;28;20521;-67
2021/08/07 10:14:02;;;;;;;5.05;1.98;;;22.80;70.40;;;;;;5040772;28;20036;-68
2021/08/07 10:16:29;;;;;;;2.17;1.50;;;22.80;71.60;;;;;;5036604;28;20446;-68
2021/08/07 10:18:55;;;;;;;3.83;1.58;;;22.30;70.20;;;;;;5040241;28;20488;-68
2021/08/07 10:21:21;;;;;;;3.65;1.95;;;22.40;68.50;;;;;;5040859;28;20069;-68
2021/08/07 10:23:50;;;;;;;3.53;1.55;;;22.80;69.00;;;;;;5034187;28;20401;-68
2021/08/07 10:26:20;;;;;;;5.03;1.98;;;22.50;68.30;;;;;;5022814;28;20041;-68
2021/08/07 10:28:53;;;;;;;3.72;1.80;;;22.90;67.80;;;;;;5043978;28;20029;-67
2021/08/07 10:31:22;;;;;;;4.50;1.90;;;22.70;68.30;;;;;;5015326;28;20122;-67
2021/08/07 10:33:51;;;;;;;2.80;1.90;;;22.60;69.10;;;;;;5037800;28;20017;-67
2021/08/07 10:36:17;;;;;;;3.92;1.60;;;23.00;71.80;;;;;;5038110;28;20040;-68
2021/08/07 10:38:43;;;;;;;2.45;1.85;;;22.90;67.40;;;;;;5035398;28;20033;-67
2021/08/07 10:41:08;;;;;;;3.63;2.03;;;22.20;67.50;;;;;;5041519;28;20115;-67
2021/08/07 10:43:36;;;;;;;2.47;1.63;;;21.80;68.00;;;;;;5040541;28;20065;-67
2021/08/07 10:46:07;;;;;;;3.38;2.13;;;21.80;69.40;;;;;;5037967;28;20044;-67
2021/08/07 10:48:36;;;;;;;3.55;1.90;;;21.70;70.00;;;;;;5037843;28;20446;-68
2021/08/07 10:51:22;;;;;;;3.78;1.90;;;21.90;70.70;;;;;;5037286;28;20104;-68
2021/08/07 10:53:49;;;;;;;3.17;1.83;;;22.30;71.70;;;;;;5035812;28;20037;-72
2021/08/07 10:56:41;;;;;;;4.05;1.98;;;22.50;67.50;;;;;;5031478;28;20051;-71
2021/08/07 10:59:10;;;;;;;3.85;1.85;;;22.90;66.60;;;;;;5039063;28;20033;-72
2021/08/07 11:01:37;;;;;;;2.80;1.50;;;23.00;64.70;;;;;;5036200;28;20048;-71
2021/08/07 11:04:07;;;;;;;1.98;1.45;;;23.40;65.80;;;;;;5040673;28;20024;-71
2021/08/07 11:06:39;;;;;;;2.13;1.27;;;24.10;63.60;;;;;;5031378;28;20036;-71
2021/08/07 11:09:30;;;;;;;2.95;1.40;;;23.70;64.30;;;;;;5037687;28;20025;-72
2021/08/07 11:12:11;;;;;;;3.03;1.30;;;23.50;65.60;;;;;;5016977;28;20044;-70
2021/08/07 11:14:40;;;;;;;1.73;1.10;;;23.00;65.70;;;;;;5039414;28;20025;-71
2021/08/07 11:17:05;;;;;;;2.00;1.00;;;22.70;65.60;;;;;;5034643;28;20056;-71
2021/08/07 11:19:59;;;;;;;1.52;1.05;;;22.60;66.20;;;;;;5036194;28;20397;-71
2021/08/07 11:25:02;;;;;;;3.28;0.93;;;22.50;67.40;;;;;;5037099;28;20041;-71
2021/08/07 11:28:01;;;;;;;4.50;0.93;;;22.60;65.80;;;;;;5041250;28;20064;-71
2021/08/07 11:30:33;;;;;;;1.55;1.10;;;23.00;64.20;;;;;;5035699;28;20034;-71
2021/08/07 11:33:00;;;;;;;3.15;0.90;;;22.90;63.50;;;;;;5049251;28;20116;-71
2021/08/07 11:35:35;;;;;;;1.70;0.88;;;22.70;65.20;;;;;;5035477;28;20067;-69
2021/08/07 11:40:56;;;;;;;2.17;0.85;;;22.30;66.90;;;;;;5039172;28;20034;-71
2021/08/07 11:43:26;;;;;;;2.92;0.88;;;22.50;69.20;;;;;;5033988;28;20060;-70
2021/08/07 11:45:54;;;;;;;4.10;1.20;;;22.50;69.00;;;;;;5034171;28;20151;-70
2021/08/07 11:48:29;;;;;;;2.35;1.33;;;23.00;66.70;;;;;;5035441;28;21698;-71
2021/08/07 11:51:00;;;;;;;2.83;1.27;;;22.70;66.90;;;;;;5030322;28;20057;-70
2021/08/07 11:53:26;;;;;;;2.85;1.15;;;22.70;65.90;;;;;;5037805;28;20043;-71
2021/08/07 11:56:13;;;;;;;2.25;0.80;;;22.60;65.50;;;;;;5045633;28;20024;-71
2021/08/07 11:58:50;;;;;;;1.63;1.00;;;22.50;65.60;;;;;;5035087;28;20187;-71
2021/08/07 12:01:17;;;;;;;1.05;0.80;;;22.80;64.70;;;;;;5034171;28;20045;-70
2021/08/07 12:03:45;;;;;;;3.22;0.93;;;22.90;67.00;;;;;;5037810;28;20162;-69
2021/08/07 12:06:15;;;;;;;4.20;1.10;;;23.00;65.40;;;;;;5045952;28;20115;-70
2021/08/07 12:08:41;;;;;;;2.70;0.93;;;22.80;67.10;;;;;;5038809;28;20136;-71
2021/08/07 12:11:09;;;;;;;1.48;0.90;;;22.70;66.70;;;;;;5037436;28;20361;-70
2021/08/07 12:13:40;;;;;;;2.15;1.10;;;23.00;67.90;;;;;;5045759;28;20028;-71
2021/08/07 12:16:12;;;;;;;2.75;0.93;;;22.90;65.80;;;;;;5047055;28;20028;-71
2021/08/07 12:18:50;;;;;;;1.55;1.05;;;22.70;67.90;;;;;;5034722;28;20048;-71
2021/08/07 12:21:26;;;;;;;6.35;0.95;;;22.70;66.00;;;;;;5036386;28;20040;-71
2021/08/07 12:24:16;;;;;;;3.33;0.98;;;23.00;69.30;;;;;;5049264;28;20473;-71
2021/08/07 12:26:45;;;;;;;4.40;1.02;;;24.50;70.80;;;;;;5032326;28;20485;-68
2021/08/07 12:29:13;;;;;;;2.60;0.85;;;25.20;68.30;;;;;;5036106;28;20029;-70
2021/08/07 12:31:46;;;;;;;2.25;1.15;;;25.50;65.60;;;;;;5040001;28;20076;-71
2021/08/07 12:34:15;;;;;;;1.85;0.93;;;25.10;67.00;;;;;;5030330;28;20028;-69
2021/08/07 12:36:41;;;;;;;1.60;0.80;;;24.10;63.90;;;;;;5036476;28;20456;-71
2021/08/07 12:39:07;;;;;;;0.70;0.60;;;23.70;67.60;;;;;;5042146;28;20089;-71
2021/08/07 12:41:33;;;;;;;2.65;0.93;;;22.80;67.80;;;;;;5039337;28;20021;-70
2021/08/07 12:43:59;;;;;;;5.30;0.90;;;22.60;71.60;;;;;;5040512;28;20115;-70
2021/08/07 12:46:25;;;;;;;1.00;0.90;;;21.90;73.10;;;;;;5046940;28;20065;-70
2021/08/07 12:48:56;;;;;;;3.25;1.10;;;21.70;74.70;;;;;;5048945;28;20101;-70